createdAt,value
2022-09-28T00:00:42.055Z,99641.34
2022-09-28T00:03:09.380Z,99635.94
2022-09-28T00:05:35.866Z,99641.34
2022-09-28T00:08:02.367Z,99647.81
2022-09-28T00:10:28.890Z,99639.59
2022-09-28T00:12:55.521Z,99645.28
2022-09-28T00:15:22.492Z,99646.84
2022-09-28T00:17:48.922Z,99641.00
2022-09-28T00:20:17.256Z,99650.31
2022-09-28T00:22:43.726Z,99641.44
2022-09-28T00:25:10.377Z,99642.66
2022-09-28T00:27:36.874Z,99640.28
2022-09-28T00:30:04.340Z,99647.31
2022-09-28T00:32:30.767Z,99655.03
2022-09-28T00:34:57.189Z,99643.75
2022-09-28T00:37:23.702Z,99648.06
2022-09-28T00:39:50.278Z,99643.44
2022-09-28T00:42:26.967Z,99643.63
2022-09-28T00:44:54.763Z,99638.88
2022-09-28T00:47:32.613Z,99643.44
2022-09-28T00:50:05.409Z,99634.00
2022-09-28T00:52:38.666Z,99635.78
2022-09-28T00:55:09.486Z,99630.66
2022-09-28T00:57:38.261Z,99620.16
2022-09-28T01:00:06.131Z,99624.47
2022-09-28T01:02:32.737Z,99623.66
2022-09-28T01:04:59.610Z,99623.91
2022-09-28T01:07:26.548Z,99621.94
2022-09-28T01:09:54.142Z,99627.13
2022-09-28T01:12:20.551Z,99621.31
2022-09-28T01:14:47.749Z,99627.41
2022-09-28T01:17:17.006Z,99625.16
2022-09-28T01:19:55.484Z,99621.72
2022-09-28T01:22:53.823Z,99620.16
2022-09-28T01:25:41.099Z,99619.81
2022-09-28T01:28:19.177Z,99619.09
2022-09-28T01:31:09.538Z,99613.78
2022-09-28T01:33:44.215Z,99619.53
2022-09-28T01:36:28.098Z,99614.81
2022-09-28T01:39:02.944Z,99625.22
2022-09-28T01:41:31.947Z,99622.50
2022-09-28T01:44:07.735Z,99610.88
2022-09-28T01:46:44.779Z,99611.34
2022-09-28T01:49:18.466Z,99611.84
2022-09-28T01:51:52.718Z,99613.53
2022-09-28T01:54:26.875Z,99616.88
2022-09-28T01:57:25.485Z,99620.53
2022-09-28T02:00:07.835Z,99614.63
2022-09-28T02:02:42.393Z,99614.63
2022-09-28T02:05:24.232Z,99612.69
2022-09-28T02:07:59.701Z,99604.25
2022-09-28T02:10:35.587Z,99610.00
2022-09-28T02:13:08.495Z,99616.13
2022-09-28T02:15:49.066Z,99610.72
2022-09-28T02:18:15.581Z,99623.78
2022-09-28T02:20:47.190Z,99612.97
2022-09-28T02:23:15.274Z,99611.09
2022-09-28T02:25:50.295Z,99614.56
2022-09-28T02:28:16.740Z,99611.78
2022-09-28T02:30:44.769Z,99613.63
2022-09-28T02:33:26.778Z,99618.38
2022-09-28T02:35:53.208Z,99615.13
2022-09-28T02:38:19.636Z,99609.56
2022-09-28T02:40:57.640Z,99614.69
2022-09-28T02:43:33.226Z,99616.59
2022-09-28T02:46:28.203Z,99609.06
2022-09-28T02:49:21.505Z,99609.88
2022-09-28T02:52:25.805Z,99612.94
2022-09-28T02:55:19.963Z,99616.84
2022-09-28T02:57:49.408Z,99617.25
2022-09-28T03:00:20.036Z,99616.84
2022-09-28T03:02:52.232Z,99619.19
2022-09-28T03:05:22.774Z,99622.75
2022-09-28T03:08:11.659Z,99620.09
2022-09-28T03:10:44.044Z,99619.72
2022-09-28T03:13:13.568Z,99620.06
2022-09-28T03:15:45.254Z,99617.81
2022-09-28T03:18:14.401Z,99620.88
2022-09-28T03:20:40.809Z,99623.41
2022-09-28T03:23:23.694Z,99618.94
2022-09-28T03:25:50.999Z,99621.94
2022-09-28T03:28:17.468Z,99623.78
2022-09-28T03:30:43.951Z,99625.22
2022-09-28T03:33:10.443Z,99624.22
2022-09-28T03:35:36.851Z,99630.81
2022-09-28T03:38:03.405Z,99629.97
2022-09-28T03:40:29.969Z,99623.72
2022-09-28T03:42:56.490Z,99626.78
2022-09-28T03:45:22.930Z,99628.69
2022-09-28T03:47:49.402Z,99630.88
2022-09-28T03:50:16.050Z,99622.00
2022-09-28T03:52:42.562Z,99625.84
2022-09-28T03:55:09.742Z,99618.81
2022-09-28T03:57:36.218Z,99620.22
2022-09-28T04:00:04.930Z,99614.25
2022-09-28T04:02:31.472Z,99616.19
2022-09-28T04:04:57.942Z,99613.75
2022-09-28T04:07:26.966Z,99614.72
2022-09-28T04:09:56.699Z,99613.09
2022-09-28T04:12:23.098Z,99609.91
2022-09-28T04:14:49.546Z,99614.31
2022-09-28T04:17:15.930Z,99607.00
2022-09-28T04:19:42.313Z,99610.41
2022-09-28T04:22:09.046Z,99620.25
2022-09-28T04:24:35.485Z,99623.72
2022-09-28T04:27:20.281Z,99624.44
2022-09-28T04:29:46.675Z,99624.72
2022-09-28T04:32:13.187Z,99628.53
2022-09-28T04:34:43.736Z,99631.19
2022-09-28T04:37:10.651Z,99634.41
2022-09-28T04:39:37.126Z,99628.13
2022-09-28T04:42:03.679Z,99629.81
2022-09-28T04:44:30.069Z,99633.34
2022-09-28T04:46:56.529Z,99641.09
2022-09-28T04:49:24.683Z,99637.88
2022-09-28T04:51:51.218Z,99636.66
2022-09-28T04:54:17.646Z,99636.94
2022-09-28T04:56:44.195Z,99635.78
2022-09-28T04:59:10.670Z,99641.97
2022-09-28T05:01:37.739Z,99645.34
2022-09-28T05:04:04.209Z,99638.94
2022-09-28T05:06:30.756Z,99647.00
2022-09-28T05:08:57.513Z,99637.88
2022-09-28T05:11:24.139Z,99645.34
2022-09-28T05:13:50.689Z,99652.56
2022-09-28T05:16:17.675Z,99642.09
2022-09-28T05:18:44.154Z,99640.88
2022-09-28T05:21:12.967Z,99640.97
2022-09-28T05:23:40.548Z,99641.09
2022-09-28T05:26:07.507Z,99644.19
2022-09-28T05:28:34.279Z,99649.69
2022-09-28T05:31:02.439Z,99647.28
2022-09-28T05:33:29.751Z,99651.69
2022-09-28T05:36:01.065Z,99654.75
2022-09-28T05:38:29.099Z,99650.22
2022-09-28T05:40:55.986Z,99651.09
2022-09-28T05:43:22.559Z,99654.66
2022-09-28T05:45:54.326Z,99665.97
2022-09-28T05:48:22.134Z,99666.97
2022-09-28T05:50:52.552Z,99662.47
2022-09-28T05:53:19.463Z,99669.00
2022-09-28T05:55:46.187Z,99664.47
2022-09-28T05:58:12.772Z,99660.66
2022-09-28T06:00:39.399Z,99665.44
2022-09-28T06:03:09.561Z,99667.53
2022-09-28T06:05:38.775Z,99664.28
2022-09-28T06:08:06.913Z,99665.97
2022-09-28T06:10:33.998Z,99662.91
2022-09-28T06:13:00.486Z,99661.84
2022-09-28T06:15:29.566Z,99662.81
2022-09-28T06:18:00.485Z,99664.66
2022-09-28T06:20:28.823Z,99667.44
2022-09-28T06:22:55.592Z,99662.22
2022-09-28T06:25:23.700Z,99665.34
2022-09-28T06:27:55.237Z,99674.97
2022-09-28T06:30:22.395Z,99671.16
2022-09-28T06:32:52.595Z,99672.81
2022-09-28T06:35:19.161Z,99678.03
2022-09-28T06:37:45.653Z,99673.56
2022-09-28T06:40:12.097Z,99667.53
2022-09-28T06:42:38.541Z,99671.19
2022-09-28T06:45:05.928Z,99666.38
2022-09-28T06:47:33.496Z,99674.63
2022-09-28T06:50:00.188Z,99673.44
2022-09-28T06:52:26.622Z,99681.84
2022-09-28T06:54:53.063Z,99678.78
2022-09-28T06:57:19.573Z,99683.59
2022-09-28T06:59:46.003Z,99679.56
2022-09-28T07:02:14.383Z,99685.25
2022-09-28T07:04:44.031Z,99692.34
2022-09-28T07:07:11.482Z,99692.97
2022-09-28T07:09:43.737Z,99684.69
2022-09-28T07:12:13.415Z,99689.88
2022-09-28T07:14:47.732Z,99694.63
2022-09-28T07:17:15.132Z,99704.91
2022-09-28T07:19:41.918Z,99707.00
2022-09-28T07:22:08.332Z,99709.75
2022-09-28T07:24:34.755Z,99709.16
2022-09-28T07:27:04.409Z,99717.09
2022-09-28T07:29:30.815Z,99717.97
2022-09-28T07:31:57.279Z,99722.28
2022-09-28T07:34:24.005Z,99722.69
2022-09-28T07:36:51.879Z,99731.66
2022-09-28T07:39:18.303Z,99725.66
2022-09-28T07:41:44.688Z,99730.16
2022-09-28T07:44:11.259Z,99731.41
2022-09-28T07:46:38.057Z,99734.66
2022-09-28T07:49:11.353Z,99731.34
2022-09-28T07:51:38.810Z,99738.44
2022-09-28T07:54:06.493Z,99743.94
2022-09-28T07:56:34.888Z,99746.44
2022-09-28T07:59:01.376Z,99741.19
2022-09-28T08:01:28.097Z,99737.38
2022-09-28T08:03:56.318Z,99749.53
2022-09-28T08:06:23.254Z,99739.53
2022-09-28T08:08:50.238Z,99738.00
2022-09-28T08:11:20.262Z,99734.63
2022-09-28T08:13:46.707Z,99740.56
2022-09-28T08:16:13.336Z,99739.81
2022-09-28T08:18:39.894Z,99747.69
2022-09-28T08:21:24.902Z,99741.59
2022-09-28T08:23:51.743Z,99740.94
2022-09-28T08:26:18.170Z,99754.63
2022-09-28T08:28:45.116Z,99757.41
2022-09-28T08:31:11.769Z,99757.44
2022-09-28T08:33:38.485Z,99752.88
2022-09-28T08:36:06.030Z,99755.28
2022-09-28T08:38:32.817Z,99763.06
2022-09-28T08:41:17.932Z,99765.44
2022-09-28T08:44:11.729Z,99763.53
2022-09-28T08:46:49.335Z,99766.59
2022-09-28T08:49:25.430Z,99765.09
2022-09-28T08:52:04.953Z,99767.44
2022-09-28T08:54:54.531Z,99771.38
2022-09-28T08:57:25.942Z,99767.09
2022-09-28T08:59:55.970Z,99765.13
2022-09-28T09:02:29.151Z,99774.41
2022-09-28T09:04:56.949Z,99776.25
2022-09-28T09:07:23.350Z,99772.31
2022-09-28T09:10:11.559Z,99780.47
2022-09-28T09:13:03.374Z,99785.19
2022-09-28T09:16:14.594Z,99788.78
2022-09-28T09:19:12.118Z,99785.28
2022-09-28T09:22:01.724Z,99786.13
2022-09-28T09:24:42.817Z,99787.69
2022-09-28T09:27:37.976Z,99787.22
2022-09-28T09:30:11.864Z,99790.28
2022-09-28T09:32:41.295Z,99795.38
2022-09-28T09:35:33.541Z,99798.13
2022-09-28T09:38:19.241Z,99793.47
2022-09-28T09:41:02.926Z,99800.94
2022-09-28T09:43:58.606Z,99795.09
2022-09-28T09:46:49.591Z,99809.16
2022-09-28T09:49:17.999Z,99807.19
2022-09-28T09:51:53.396Z,99811.88
2022-09-28T09:54:30.218Z,99798.25
2022-09-28T09:57:03.651Z,99789.69
2022-09-28T09:59:35.079Z,99802.91
2022-09-28T10:02:11.795Z,99804.09
2022-09-28T10:04:46.663Z,99797.09
2022-09-28T10:07:23.499Z,99799.47
2022-09-28T10:09:52.625Z,99804.19
2022-09-28T10:12:21.341Z,99809.63
2022-09-28T10:14:47.823Z,99812.75
2022-09-28T10:17:20.054Z,99807.31
2022-09-28T10:19:46.717Z,99803.00
2022-09-28T10:22:20.985Z,99803.78
2022-09-28T10:24:51.005Z,99801.06
2022-09-28T10:27:21.259Z,99802.25
2022-09-28T10:29:57.896Z,99801.50
2022-09-28T10:32:26.772Z,99801.13
2022-09-28T10:35:10.875Z,99804.22
2022-09-28T10:37:49.274Z,99801.53
2022-09-28T10:40:30.354Z,99799.19
2022-09-28T10:43:01.728Z,99801.13
2022-09-28T10:45:35.774Z,99802.28
2022-09-28T10:48:06.222Z,99805.00
2022-09-28T10:50:32.653Z,99808.13
2022-09-28T10:53:19.842Z,99798.41
2022-09-28T10:56:08.650Z,99797.22
2022-09-28T10:58:40.625Z,99802.28
2022-09-28T11:01:12.118Z,99797.59
2022-09-28T11:03:49.879Z,99796.84
2022-09-28T11:06:24.073Z,99801.09
2022-09-28T11:08:50.612Z,99798.00
2022-09-28T11:11:20.009Z,99805.81
2022-09-28T11:13:55.956Z,99806.97
2022-09-28T11:16:30.725Z,99811.25
2022-09-28T11:19:02.960Z,99804.63
2022-09-28T11:21:34.509Z,99799.94
2022-09-28T11:24:24.349Z,99804.22
2022-09-28T11:26:56.340Z,99804.63
2022-09-28T11:29:41.873Z,99798.41
2022-09-28T11:32:13.687Z,99809.69
2022-09-28T11:34:59.154Z,99799.97
2022-09-28T11:37:41.401Z,99792.16
2022-09-28T11:40:10.860Z,99798.78
2022-09-28T11:42:52.454Z,99797.19
2022-09-28T11:45:47.260Z,99799.53
2022-09-28T11:48:22.499Z,99801.81
2022-09-28T11:50:56.177Z,99788.97
2022-09-28T11:53:36.762Z,99803.41
2022-09-28T11:56:36.012Z,99792.88
2022-09-28T11:59:14.298Z,99791.31
2022-09-28T12:01:47.211Z,99794.78
2022-09-28T12:04:24.262Z,99799.88
2022-09-28T12:06:58.240Z,99793.25
2022-09-28T12:09:35.845Z,99793.19
2022-09-28T12:12:06.094Z,99792.03
2022-09-28T12:14:38.298Z,99800.22
2022-09-28T12:17:26.644Z,99803.81
2022-09-28T12:20:00.682Z,99813.97
2022-09-28T12:22:40.498Z,99819.03
2022-09-28T12:25:16.130Z,99820.09
2022-09-28T12:27:50.525Z,99832.06
2022-09-28T12:30:25.707Z,99812.97
2022-09-28T12:33:05.526Z,99813.41
2022-09-28T12:36:02.230Z,99818.84
2022-09-28T12:38:37.742Z,99819.16
2022-09-28T12:41:23.336Z,99819.88
2022-09-28T12:44:13.356Z,99823.72
2022-09-28T12:47:09.737Z,99808.53
2022-09-28T12:50:36.620Z,99818.94
2022-09-28T12:52:50.684Z,99824.00
2022-09-28T12:55:54.179Z,99820.56
2022-09-28T12:58:29.420Z,99816.72
2022-09-28T13:01:20.179Z,99808.97
2022-09-28T13:04:13.336Z,99816.00
2022-09-28T13:07:06.865Z,99815.28
2022-09-28T13:10:02.339Z,99809.88
2022-09-28T13:12:59.705Z,99817.59
2022-09-28T13:15:42.451Z,99821.06
2022-09-28T13:18:34.749Z,99822.13
2022-09-28T13:21:09.703Z,99828.63
2022-09-28T13:23:42.050Z,99826.50
2022-09-28T13:26:12.058Z,99842.72
2022-09-28T13:28:39.701Z,99848.78
2022-09-28T13:31:07.393Z,99852.50
2022-09-28T13:33:41.005Z,99853.94
2022-09-28T13:36:28.729Z,99847.03
2022-09-28T13:38:59.405Z,99849.66
2022-09-28T13:41:40.389Z,99839.16
2022-09-28T13:44:12.869Z,99844.09
2022-09-28T13:47:20.473Z,99847.78
2022-09-28T13:50:17.798Z,99844.97
2022-09-28T13:52:50.267Z,99839.72
2022-09-28T13:55:32.888Z,99852.00
2022-09-28T13:58:14.549Z,99853.06
2022-09-28T14:00:51.547Z,99854.16
2022-09-28T14:03:42.945Z,99849.47
2022-09-28T14:06:23.548Z,99856.00
2022-09-28T14:08:59.116Z,99847.91
2022-09-28T14:11:42.506Z,99850.25
2022-09-28T14:14:11.308Z,99853.81
2022-09-28T14:16:39.462Z,99851.19
2022-09-28T14:19:12.218Z,99852.03
2022-09-28T14:21:54.435Z,99852.91
2022-09-28T14:24:32.675Z,99855.00
2022-09-28T14:27:25.563Z,99853.56
2022-09-28T14:30:06.434Z,99842.03
2022-09-28T14:32:36.956Z,99847.16
2022-09-28T14:35:18.632Z,99844.53
2022-09-28T17:55:13.982Z,99952.09
2022-09-28T17:57:40.826Z,99948.91
2022-09-28T18:00:08.030Z,99953.81
2022-09-28T18:02:34.523Z,99949.44
2022-09-28T18:05:01.005Z,99945.47
2022-09-28T18:07:30.943Z,99950.44
2022-09-28T18:09:58.182Z,99951.94
2022-09-28T18:12:25.022Z,99955.44
2022-09-28T18:14:52.096Z,99951.50
2022-09-28T18:17:18.563Z,99961.91
2022-09-28T18:19:45.085Z,99956.03
2022-09-28T18:22:11.486Z,99956.72
2022-09-28T18:24:37.926Z,99963.25
2022-09-28T18:27:04.414Z,99963.91
2022-09-28T18:29:33.332Z,99962.34
2022-09-28T18:32:00.440Z,99963.00
2022-09-28T18:34:26.882Z,99963.34
2022-09-28T18:36:53.423Z,99962.22
2022-09-28T18:39:20.018Z,99960.72
2022-09-28T18:41:46.650Z,99959.88
2022-09-28T18:44:13.161Z,99959.88
2022-09-28T18:46:42.581Z,99956.78
2022-09-28T18:49:09.215Z,99959.09
2022-09-28T18:51:35.740Z,99960.25
2022-09-28T18:54:07.052Z,99962.16
2022-09-28T18:56:36.952Z,99969.56
2022-09-28T18:59:11.974Z,99972.94
2022-09-28T19:01:38.930Z,99965.16
2022-09-28T19:04:07.269Z,99967.47
2022-09-28T19:06:34.475Z,99965.50
2022-09-28T19:09:01.085Z,99969.63
2022-09-28T19:11:28.593Z,99971.53
2022-09-28T19:13:55.850Z,99971.38
2022-09-28T19:16:25.197Z,99976.81
2022-09-28T19:18:53.386Z,99981.84
2022-09-28T19:21:20.178Z,99970.59
2022-09-28T19:23:49.796Z,99974.47
2022-09-28T19:26:20.729Z,99978.75
2022-09-28T19:28:48.567Z,99975.25
2022-09-28T19:31:15.125Z,99979.44
2022-09-28T19:33:41.740Z,99978.59
2022-09-28T19:36:10.690Z,99975.13
2022-09-28T19:38:39.208Z,99988.28
2022-09-28T19:41:11.026Z,99987.16
2022-09-28T19:43:38.282Z,99991.00
2022-09-28T19:46:06.205Z,99997.84
2022-09-28T19:48:34.384Z,99995.88
2022-09-28T19:51:06.158Z,99998.94
2022-09-28T19:53:38.003Z,99993.56
2022-09-28T19:56:05.654Z,99994.72
2022-09-28T19:58:35.626Z,99998.22
2022-09-28T20:01:06.906Z,99993.53
2022-09-28T20:03:34.259Z,100000.50
2022-09-28T20:06:01.791Z,99995.00
2022-09-28T20:08:30.108Z,100000.31
2022-09-28T20:10:59.566Z,100004.78
2022-09-28T20:13:31.711Z,99999.66
2022-09-28T20:16:12.650Z,100009.13
2022-09-28T20:18:43.699Z,100004.81
2022-09-28T20:21:18.030Z,100012.56
2022-09-28T20:23:45.931Z,100007.84
2022-09-28T20:26:13.188Z,100012.00
2022-09-28T20:28:40.455Z,100008.94
2022-09-28T20:31:20.304Z,100010.44
2022-09-28T20:33:47.568Z,100016.28
2022-09-28T20:36:21.539Z,100009.78
2022-09-28T20:38:54.762Z,100021.25
2022-09-28T20:41:23.223Z,100025.00
2022-09-28T20:43:55.743Z,100021.88
2022-09-28T20:46:23.449Z,100010.28
2022-09-28T20:48:50.695Z,100014.63
2022-09-28T20:51:19.938Z,100011.78
2022-09-28T20:53:52.058Z,100015.97
2022-09-28T20:56:21.350Z,100021.38
2022-09-28T20:58:50.233Z,100012.47
2022-09-28T21:01:28.594Z,100016.94
2022-09-28T21:04:00.082Z,100022.66
2022-09-28T21:06:29.081Z,100022.06
2022-09-28T21:08:55.549Z,100018.06
2022-09-28T21:11:23.890Z,100008.44
2022-09-28T21:13:55.116Z,100025.19
2022-09-28T21:16:21.581Z,100016.66
2022-09-28T21:18:48.047Z,100033.38
2022-09-28T21:21:17.096Z,100029.09
2022-09-28T21:23:46.813Z,100030.97
2022-09-28T21:26:25.364Z,100027.56
2022-09-28T21:28:56.088Z,100029.25
2022-09-28T21:31:28.795Z,100032.50
2022-09-28T21:33:56.111Z,100028.84
2022-09-28T21:36:22.515Z,100028.84
2022-09-28T21:38:49.368Z,100032.50
2022-09-28T21:41:15.930Z,100027.69
2022-09-28T21:43:42.372Z,100029.38
2022-09-28T21:46:10.235Z,100031.97
2022-09-28T21:48:36.690Z,100035.31
2022-09-28T21:51:09.149Z,100038.78
2022-09-28T21:53:37.378Z,100041.50
2022-09-28T21:56:06.197Z,100041.16
2022-09-28T21:58:34.027Z,100035.31
2022-09-28T22:01:15.411Z,100037.56
2022-09-28T22:03:43.959Z,100042.69
2022-09-28T22:06:11.314Z,100045.31
2022-09-28T22:08:38.655Z,100039.19
2022-09-28T22:11:14.029Z,100048.78
2022-09-28T22:13:48.278Z,100040.50
2022-09-28T22:16:17.388Z,100045.53
2022-09-28T22:18:44.422Z,100057.66
2022-09-28T22:21:14.709Z,100051.53
2022-09-28T22:23:41.150Z,100058.06
2022-09-28T22:26:11.346Z,100057.97
2022-09-28T22:28:39.613Z,100054.56
2022-09-28T22:31:06.344Z,100053.19
2022-09-28T22:33:34.051Z,100062.19
2022-09-28T22:36:00.582Z,100065.69
2022-09-28T22:38:28.078Z,100073.94
2022-09-28T22:40:55.952Z,100070.34
2022-09-28T22:43:24.038Z,100064.94
2022-09-28T22:45:59.987Z,100064.59
2022-09-28T22:48:26.550Z,100064.69
2022-09-28T22:50:52.992Z,100063.13
2022-09-28T22:53:19.457Z,100061.03
2022-09-28T22:55:45.900Z,100063.97
2022-09-28T22:58:12.925Z,100065.78
2022-09-28T23:00:39.869Z,100065.53
2022-09-28T23:03:06.374Z,100056.06
2022-09-28T23:05:32.874Z,100066.16
2022-09-28T23:07:59.340Z,100060.75
2022-09-28T23:10:25.818Z,100055.97
2022-09-28T23:12:56.940Z,100071.44
2022-09-28T23:15:23.378Z,100063.13
2022-09-28T23:17:53.000Z,100071.22
2022-09-28T23:20:20.769Z,100065.50
2022-09-28T23:22:50.544Z,100066.53
2022-09-28T23:25:18.334Z,100068.88
2022-09-28T23:27:48.926Z,100066.53
2022-09-28T23:30:17.079Z,100068.88
2022-09-28T23:32:43.868Z,100070.16
2022-09-28T23:35:10.959Z,100074.81
2022-09-28T23:37:38.113Z,100069.31
2022-09-28T23:40:06.034Z,100074.19
2022-09-28T23:42:33.028Z,100071.00
2022-09-28T23:44:59.472Z,100074.28
2022-09-28T23:47:25.975Z,100083.34
2022-09-28T23:49:52.384Z,100074.22
2022-09-28T23:52:18.839Z,100070.31
2022-09-28T23:54:45.320Z,100064.25
2022-09-28T23:57:11.797Z,100074.91
2022-09-28T23:59:38.645Z,100063.44
